createdAt,value
2019-03-11T00:00:14.817Z,0
2019-03-11T00:01:16.546Z,0
2019-03-11T00:02:18.302Z,0
2019-03-11T00:03:20.167Z,0
2019-03-11T00:04:22.897Z,0
2019-03-11T00:05:23.822Z,0
2019-03-11T00:06:25.625Z,0
2019-03-11T00:07:27.536Z,0
2019-03-11T00:08:29.467Z,0
2019-03-11T00:09:31.590Z,0
2019-03-11T00:10:33.707Z,0
2019-03-11T00:11:35.735Z,0
2019-03-11T00:12:37.652Z,0
2019-03-11T00:13:39.414Z,0
2019-03-11T00:14:41.282Z,0
2019-03-11T00:15:43.305Z,0
2019-03-11T00:16:45.255Z,0
2019-03-11T00:17:46.992Z,0
2019-03-11T00:18:48.803Z,0
2019-03-11T00:19:50.671Z,0
2019-03-11T00:20:52.606Z,0
2019-03-11T00:21:54.459Z,0
2019-03-11T00:22:56.355Z,0
2019-03-11T00:23:58.402Z,0
2019-03-11T00:25:00.351Z,0
2019-03-11T00:26:02.275Z,0
2019-03-11T00:27:04.097Z,0
2019-03-11T00:28:05.948Z,0
2019-03-11T00:29:07.822Z,0
2019-03-11T00:30:09.571Z,0
2019-03-11T00:31:11.653Z,0
2019-03-11T00:32:13.573Z,0
2019-03-11T00:33:15.563Z,0
2019-03-11T00:34:17.446Z,0
2019-03-11T00:35:19.353Z,0
2019-03-11T00:36:21.517Z,0
2019-03-11T00:37:23.349Z,0
2019-03-11T00:38:25.227Z,0
2019-03-11T00:39:27.227Z,0
2019-03-11T00:40:29.071Z,0
2019-03-11T00:41:30.988Z,0
2019-03-11T00:42:32.758Z,0
2019-03-11T00:43:34.695Z,0
2019-03-11T00:44:36.533Z,0
2019-03-11T00:45:38.208Z,0
2019-03-11T00:46:39.771Z,0
2019-03-11T00:47:41.175Z,0
2019-03-11T00:48:42.620Z,0
2019-03-11T00:49:44.082Z,0
2019-03-11T00:50:45.550Z,0
2019-03-11T00:51:47.035Z,0
2019-03-11T00:52:48.548Z,0
2019-03-11T00:53:49.982Z,0
2019-03-11T00:54:51.487Z,0
2019-03-11T00:55:53.056Z,0
2019-03-11T00:56:54.646Z,0
2019-03-11T00:57:56.164Z,0
2019-03-11T00:58:57.628Z,0
2019-03-11T00:59:59.090Z,0
2019-03-11T01:01:00.621Z,0
2019-03-11T01:02:02.236Z,0
2019-03-11T01:03:03.707Z,0
2019-03-11T01:04:05.179Z,0
2019-03-11T01:05:06.672Z,0
2019-03-11T01:06:08.172Z,0
2019-03-11T01:07:09.712Z,0
2019-03-11T01:08:11.281Z,0
2019-03-11T01:09:12.939Z,0
2019-03-11T01:10:14.655Z,0
2019-03-11T01:11:16.530Z,0
2019-03-11T01:12:18.310Z,0
2019-03-11T01:13:20.330Z,0
2019-03-11T01:14:22.413Z,0
2019-03-11T01:15:24.295Z,0
2019-03-11T01:16:25.969Z,0
2019-03-11T01:17:27.385Z,0
2019-03-11T01:18:28.895Z,0
2019-03-11T01:19:30.367Z,0
2019-03-11T01:20:32.019Z,0
2019-03-11T01:21:33.597Z,0
2019-03-11T01:22:35.006Z,0
2019-03-11T01:23:36.497Z,0
2019-03-11T01:24:37.966Z,0
2019-03-11T01:25:39.504Z,0
2019-03-11T01:26:40.935Z,0
2019-03-11T01:27:42.605Z,0
2019-03-11T01:28:44.053Z,0
2019-03-11T01:29:45.527Z,0
2019-03-11T01:30:47.093Z,0
2019-03-11T01:31:48.602Z,0
2019-03-11T01:32:50.317Z,0
2019-03-11T01:33:52.083Z,0
2019-03-11T01:34:53.988Z,0
2019-03-11T01:35:55.794Z,0
2019-03-11T01:36:57.608Z,0
2019-03-11T01:37:59.173Z,0
2019-03-11T01:39:00.671Z,0
2019-03-11T01:40:02.404Z,0
2019-03-11T01:41:04.138Z,0
2019-03-11T01:42:05.623Z,0
2019-03-11T01:43:07.158Z,0
2019-03-11T01:44:08.657Z,0
2019-03-11T01:45:10.209Z,0
2019-03-11T01:46:11.716Z,0
2019-03-11T01:47:13.188Z,0
2019-03-11T01:48:14.736Z,0
2019-03-11T01:49:16.296Z,0
2019-03-11T01:50:17.875Z,0
2019-03-11T01:51:19.316Z,0
2019-03-11T01:52:20.926Z,0
2019-03-11T01:53:22.888Z,0
2019-03-11T01:54:24.797Z,0
2019-03-11T01:55:26.627Z,0
2019-03-11T01:56:28.432Z,0
2019-03-11T01:57:30.378Z,0
2019-03-11T01:58:32.421Z,0
2019-03-11T01:59:34.448Z,0
2019-03-11T02:00:36.307Z,0
2019-03-11T02:01:38.273Z,0
2019-03-11T02:02:40.112Z,0
2019-03-11T02:03:42.091Z,0
2019-03-11T02:04:43.956Z,0
2019-03-11T02:05:45.796Z,0
2019-03-11T02:06:47.503Z,0
2019-03-11T02:07:49.180Z,0
2019-03-11T02:08:51.136Z,0
2019-03-11T02:09:52.977Z,0
2019-03-11T02:10:54.996Z,0
2019-03-11T02:11:56.996Z,0
2019-03-11T02:12:58.821Z,0
2019-03-11T02:14:00.697Z,0
2019-03-11T02:15:02.621Z,0
2019-03-11T02:16:04.516Z,0
2019-03-11T02:17:06.473Z,0
2019-03-11T02:18:08.229Z,0
2019-03-11T02:19:10.179Z,0
2019-03-11T02:20:11.972Z,0
2019-03-11T02:21:13.925Z,0
2019-03-11T02:22:16.022Z,0
2019-03-11T02:23:17.989Z,0
2019-03-11T02:24:19.894Z,0
2019-03-11T02:25:21.748Z,0
2019-03-11T02:26:23.440Z,0
2019-03-11T02:27:25.458Z,0
2019-03-11T02:28:27.406Z,0
2019-03-11T02:29:29.313Z,0
2019-03-11T02:30:31.271Z,0
2019-03-11T02:31:33.318Z,0
2019-03-11T02:32:35.124Z,0
2019-03-11T02:33:37.274Z,0
2019-03-11T02:34:38.900Z,0
2019-03-11T02:35:40.530Z,0
2019-03-11T02:36:42.527Z,0
2019-03-11T02:37:44.424Z,0
2019-03-11T02:38:46.071Z,0
2019-03-11T02:39:48.028Z,0
2019-03-11T02:40:50.042Z,0
2019-03-11T02:41:51.880Z,0
2019-03-11T02:42:53.573Z,0
2019-03-11T02:43:55.312Z,0
2019-03-11T02:44:57.201Z,0
2019-03-11T02:45:59.133Z,0
2019-03-11T02:47:00.892Z,0
2019-03-11T02:48:02.835Z,0
2019-03-11T02:49:04.614Z,0
2019-03-11T02:50:06.136Z,0
2019-03-11T02:51:07.844Z,0
2019-03-11T02:52:09.276Z,0
2019-03-11T02:53:10.759Z,0
2019-03-11T02:54:12.382Z,0
2019-03-11T02:55:14.000Z,0
2019-03-11T02:56:15.764Z,0
2019-03-11T02:57:17.274Z,0
2019-03-11T02:58:46.949Z,0
2019-03-11T02:59:48.858Z,0
2019-03-11T03:00:50.674Z,0
2019-03-11T03:01:52.179Z,0
2019-03-11T03:02:53.683Z,0
2019-03-11T03:03:55.054Z,0
2019-03-11T03:04:56.471Z,0
2019-03-11T03:05:57.841Z,0
2019-03-11T03:06:59.219Z,0
2019-03-11T03:08:00.587Z,0
2019-03-11T03:09:01.959Z,0
2019-03-11T03:10:03.350Z,0
2019-03-11T03:11:04.714Z,0
2019-03-11T03:12:06.081Z,0
2019-03-11T03:13:07.456Z,0
2019-03-11T03:14:08.926Z,0
2019-03-11T03:15:10.499Z,0
2019-03-11T03:16:12.100Z,0
2019-03-11T03:17:13.901Z,0
2019-03-11T03:18:15.990Z,0
2019-03-11T03:19:18.018Z,0
2019-03-11T03:20:19.816Z,0
2019-03-11T03:21:21.838Z,0
2019-03-11T03:22:23.841Z,0
2019-03-11T03:23:25.831Z,0
2019-03-11T03:24:27.764Z,0
2019-03-11T03:25:34.513Z,0
2019-03-11T03:26:31.728Z,0
2019-03-11T03:27:33.672Z,0
2019-03-11T03:28:35.152Z,0
2019-03-11T03:29:36.842Z,0
2019-03-11T03:30:38.346Z,0
2019-03-11T03:31:39.968Z,0
2019-03-11T03:32:41.649Z,0
2019-03-11T03:33:43.139Z,0
2019-03-11T03:34:44.840Z,0
2019-03-11T03:35:46.364Z,0
2019-03-11T03:36:47.933Z,0
2019-03-11T03:37:49.399Z,0
2019-03-11T03:38:51.169Z,0
2019-03-11T03:39:53.037Z,0
2019-03-11T03:40:54.760Z,0
2019-03-11T03:41:56.663Z,0
2019-03-11T03:42:58.552Z,0
2019-03-11T03:44:00.413Z,0
2019-03-11T03:45:02.335Z,0
2019-03-11T03:46:17.503Z,0
2019-03-11T03:47:05.844Z,0
2019-03-11T03:48:07.636Z,0
2019-03-11T03:49:09.546Z,0
2019-03-11T03:50:11.376Z,0
2019-03-11T03:51:13.285Z,0
2019-03-11T03:52:15.235Z,0
2019-03-11T03:53:17.122Z,0
2019-03-11T03:54:19.135Z,0
2019-03-11T03:55:20.744Z,0
2019-03-11T03:56:22.175Z,0
2019-03-11T03:57:23.524Z,0
2019-03-11T03:58:24.874Z,0
2019-03-11T03:59:26.231Z,0
2019-03-11T04:00:27.587Z,0
2019-03-11T04:01:28.957Z,0
2019-03-11T04:02:30.295Z,0
2019-03-11T04:03:31.639Z,0
2019-03-11T04:04:32.999Z,0
2019-03-11T04:05:34.343Z,0
2019-03-11T04:06:35.703Z,0
2019-03-11T04:07:37.041Z,0
2019-03-11T04:08:38.409Z,0
2019-03-11T04:09:39.751Z,0
2019-03-11T04:10:41.099Z,0
2019-03-11T04:11:42.444Z,0
2019-03-11T04:12:43.790Z,0
2019-03-11T04:13:45.139Z,0
2019-03-11T04:14:46.491Z,0
2019-03-11T04:15:47.838Z,0
2019-03-11T04:16:49.197Z,0
2019-03-11T04:17:50.541Z,0
2019-03-11T04:18:51.894Z,0
2019-03-11T04:19:53.231Z,0
2019-03-11T04:20:54.590Z,0
2019-03-11T04:21:55.932Z,0
2019-03-11T04:22:57.276Z,0
2019-03-11T04:23:58.648Z,0
2019-03-11T04:24:59.975Z,0
2019-03-11T04:26:01.327Z,0
2019-03-11T04:27:02.671Z,0
2019-03-11T04:28:04.020Z,0
2019-03-11T04:29:05.364Z,0
2019-03-11T04:30:06.718Z,0
2019-03-11T04:31:08.064Z,0
2019-03-11T04:32:09.415Z,0
2019-03-11T04:33:10.763Z,0
2019-03-11T04:34:12.103Z,0
2019-03-11T04:35:13.449Z,0
2019-03-11T04:36:14.806Z,0
2019-03-11T04:37:16.165Z,0
2019-03-11T04:38:17.519Z,0
2019-03-11T04:39:18.869Z,0
2019-03-11T04:40:20.220Z,0
2019-03-11T04:41:21.577Z,0
2019-03-11T04:42:23.088Z,0
2019-03-11T04:43:24.710Z,0
2019-03-11T04:44:26.354Z,0
2019-03-11T04:45:28.448Z,0
2019-03-11T04:46:30.453Z,0
2019-03-11T04:47:32.334Z,0
2019-03-11T04:48:34.054Z,0
2019-03-11T04:49:35.920Z,0
2019-03-11T04:50:37.728Z,0
2019-03-11T04:51:39.555Z,0
2019-03-11T04:52:41.301Z,0
2019-03-11T04:53:43.134Z,0
2019-03-11T04:54:44.933Z,0
2019-03-11T04:55:46.768Z,0
2019-03-11T04:56:48.605Z,0
2019-03-11T04:57:50.386Z,0
2019-03-11T04:58:52.313Z,0
2019-03-11T04:59:56.364Z,0
2019-03-11T05:00:58.277Z,0
2019-03-11T05:02:00.150Z,0
2019-03-11T05:03:02.041Z,0
2019-03-11T05:04:04.511Z,0
2019-03-11T05:05:06.582Z,0
2019-03-11T05:06:08.804Z,0
2019-03-11T05:07:11.076Z,0
2019-03-11T05:08:13.010Z,0
2019-03-11T05:09:14.901Z,0
2019-03-11T05:10:16.824Z,0
2019-03-11T05:11:18.646Z,0
2019-03-11T05:12:20.714Z,0
2019-03-11T05:13:22.634Z,0
2019-03-11T05:14:24.550Z,0
2019-03-11T05:15:26.558Z,0
2019-03-11T05:16:28.711Z,0
2019-03-11T05:17:30.737Z,0
2019-03-11T05:18:33.463Z,0
2019-03-11T05:19:35.095Z,4
2019-03-11T05:20:36.794Z,4
2019-03-11T05:21:38.560Z,0
2019-03-11T05:22:40.201Z,4
2019-03-11T05:23:41.933Z,4
2019-03-11T05:24:44.690Z,4
2019-03-11T05:25:47.459Z,4
2019-03-11T05:26:50.150Z,8
2019-03-11T05:27:52.419Z,8
2019-03-11T05:28:54.030Z,12
2019-03-11T05:29:55.859Z,12
2019-03-11T05:30:58.055Z,16
2019-03-11T05:32:00.774Z,20
2019-03-11T05:33:02.706Z,24
2019-03-11T05:34:06.330Z,32
2019-03-11T05:35:08.639Z,36
2019-03-11T05:36:10.660Z,44
2019-03-11T05:37:13.852Z,48
2019-03-11T05:38:20.083Z,56
2019-03-11T05:39:21.990Z,64
2019-03-11T05:40:23.843Z,72
2019-03-11T05:41:25.695Z,80
2019-03-11T05:42:34.843Z,92
2019-03-11T05:43:37.598Z,104
2019-03-11T05:44:39.509Z,120
2019-03-11T05:45:41.272Z,132
2019-03-11T05:46:43.096Z,148
2019-03-11T05:47:44.984Z,164
2019-03-11T05:48:46.718Z,184
2019-03-11T05:49:48.521Z,204
2019-03-11T05:50:50.189Z,224
2019-03-11T05:51:51.949Z,248
2019-03-11T05:52:53.695Z,268
2019-03-11T05:53:55.474Z,284
2019-03-11T05:54:57.300Z,300
2019-03-11T05:55:58.979Z,312
2019-03-11T05:57:00.531Z,332
2019-03-11T05:58:02.349Z,352
2019-03-11T05:59:04.219Z,372
2019-03-11T06:00:06.145Z,372
2019-03-11T06:01:07.824Z,372
2019-03-11T06:02:10.710Z,360
2019-03-11T06:03:12.694Z,348
2019-03-11T06:04:14.701Z,320
2019-03-11T06:05:18.791Z,280
2019-03-11T06:06:20.445Z,268
2019-03-11T06:07:22.337Z,272
2019-03-11T06:08:24.151Z,292
2019-03-11T06:09:26.139Z,308
2019-03-11T06:10:27.995Z,336
2019-03-11T06:11:29.882Z,364
2019-03-11T06:12:31.479Z,392
2019-03-11T06:13:36.232Z,412
2019-03-11T06:14:34.910Z,428
2019-03-11T06:15:36.715Z,444
2019-03-11T06:16:38.567Z,452
2019-03-11T06:17:40.496Z,452
2019-03-11T06:18:44.247Z,476
2019-03-11T06:19:43.917Z,488
2019-03-11T06:20:45.719Z,436
2019-03-11T06:21:47.557Z,428
2019-03-11T06:22:49.242Z,432
2019-03-11T06:23:50.903Z,464
2019-03-11T06:24:52.616Z,576
2019-03-11T06:25:54.310Z,672
2019-03-11T06:26:56.006Z,740
2019-03-11T06:27:57.776Z,768
2019-03-11T06:28:59.451Z,804
2019-03-11T06:30:01.093Z,844
2019-03-11T06:31:02.691Z,864
2019-03-11T06:32:04.353Z,924
2019-03-11T06:33:05.944Z,1012
2019-03-11T06:34:07.624Z,1200
2019-03-11T06:35:09.138Z,1356
2019-03-11T06:36:10.647Z,1532
2019-03-11T06:37:12.214Z,1684
2019-03-11T06:38:13.937Z,1728
2019-03-11T06:39:15.571Z,1800
2019-03-11T06:40:17.178Z,1820
2019-03-11T06:41:18.790Z,1848
2019-03-11T06:42:20.409Z,2080
2019-03-11T06:43:22.031Z,2368
2019-03-11T06:44:23.539Z,2788
2019-03-11T06:45:25.016Z,3156
2019-03-11T06:46:26.665Z,3416
2019-03-11T06:47:28.185Z,3548
2019-03-11T06:48:30.091Z,3520
2019-03-11T06:49:31.585Z,3336
2019-03-11T06:50:33.146Z,3064
2019-03-11T06:51:34.710Z,2832
2019-03-11T06:52:36.527Z,2668
2019-03-11T06:53:38.200Z,2556
2019-03-11T06:54:39.895Z,2424
2019-03-11T06:55:41.695Z,2312
2019-03-11T06:56:43.355Z,2296
2019-03-11T06:57:45.170Z,2196
2019-03-11T06:58:46.933Z,1952
2019-03-11T06:59:48.535Z,1656
2019-03-11T07:00:50.126Z,1472
2019-03-11T07:01:51.702Z,1416
2019-03-11T07:02:53.512Z,1520
2019-03-11T07:03:55.377Z,1780
2019-03-11T07:04:57.042Z,2388
2019-03-11T07:05:58.905Z,2892
2019-03-11T07:07:00.587Z,3132
2019-03-11T07:08:02.093Z,3372
2019-03-11T07:09:03.879Z,3504
2019-03-11T07:10:05.463Z,3624
2019-03-11T07:11:07.282Z,3848
2019-03-11T07:12:08.892Z,4108
2019-03-11T07:13:10.364Z,4228
2019-03-11T07:14:12.008Z,4116
2019-03-11T07:15:13.507Z,4036
2019-03-11T07:16:15.257Z,4060
2019-03-11T07:17:16.920Z,4172
2019-03-11T07:18:18.683Z,4384
2019-03-11T07:19:20.172Z,4832
2019-03-11T07:20:21.677Z,5108
2019-03-11T07:21:23.186Z,5480
2019-03-11T07:22:24.675Z,6700
2019-03-11T07:23:26.240Z,7472
2019-03-11T07:24:27.847Z,18176
2019-03-11T07:25:29.431Z,9900
2019-03-11T07:26:31.073Z,7420
2019-03-11T07:27:32.644Z,7716
2019-03-11T07:28:34.240Z,6880
2019-03-11T07:29:35.800Z,6512
2019-03-11T07:30:37.356Z,5476
2019-03-11T07:31:39.032Z,5196
2019-03-11T07:32:40.550Z,5304
2019-03-11T07:33:42.132Z,5856
2019-03-11T07:34:43.620Z,9032
2019-03-11T07:35:45.126Z,8980
2019-03-11T07:36:46.640Z,10280
2019-03-11T07:37:48.070Z,10284
2019-03-11T07:38:49.747Z,56000
2019-03-11T07:39:51.438Z,42944
2019-03-11T07:40:52.822Z,11012
2019-03-11T07:41:54.311Z,13040
2019-03-11T07:42:55.826Z,10932
2019-03-11T07:43:57.321Z,8904
2019-03-11T07:44:58.956Z,8404
2019-03-11T07:46:00.499Z,8288
2019-03-11T07:47:02.872Z,8704
2019-03-11T07:48:04.616Z,8044
2019-03-11T07:49:06.217Z,7720
2019-03-11T07:50:07.921Z,29664
2019-03-11T07:51:09.422Z,8540
2019-03-11T07:52:11.214Z,9576
2019-03-11T07:53:12.756Z,52544
2019-03-11T07:54:14.577Z,10808
2019-03-11T07:55:16.125Z,49088
2019-03-11T07:56:17.912Z,49024
2019-03-11T07:57:19.548Z,45856
2019-03-11T07:58:21.467Z,41120
2019-03-11T07:59:23.163Z,11480
2019-03-11T08:00:24.965Z,7388
2019-03-11T08:01:26.758Z,10376
2019-03-11T08:02:28.575Z,9668
2019-03-11T08:03:30.203Z,37600
2019-03-11T08:04:31.772Z,21056
2019-03-11T08:05:33.714Z,37056
2019-03-11T08:06:35.460Z,39712
2019-03-11T08:07:37.182Z,11728
2019-03-11T08:08:39.017Z,11132
2019-03-11T08:09:40.772Z,37312
2019-03-11T08:10:42.613Z,12464
2019-03-11T08:11:44.306Z,12204
2019-03-11T08:12:46.458Z,29184
2019-03-11T08:13:48.202Z,26656
2019-03-11T08:14:49.921Z,31104
2019-03-11T08:15:51.704Z,22592
2019-03-11T08:16:53.481Z,14724
2019-03-11T08:17:55.255Z,12520
2019-03-11T08:18:57.222Z,10252
2019-03-11T08:19:59.061Z,8824
2019-03-11T08:21:01.062Z,10048
2019-03-11T08:22:02.995Z,10600
2019-03-11T08:23:04.823Z,10660
2019-03-11T08:24:06.756Z,12932
2019-03-11T08:25:08.697Z,11664
2019-03-11T08:26:10.623Z,11584
2019-03-11T08:27:12.416Z,10480
2019-03-11T08:28:14.517Z,8336
2019-03-11T08:29:16.369Z,10232
2019-03-11T08:30:18.342Z,12936
2019-03-11T08:31:20.222Z,11676
2019-03-11T08:32:22.188Z,9564
2019-03-11T08:33:24.192Z,7608
2019-03-11T08:34:26.135Z,7696
2019-03-11T08:35:28.038Z,8588
2019-03-11T08:36:30.089Z,9452
2019-03-11T08:37:31.926Z,10400
2019-03-11T08:38:33.760Z,10660
2019-03-11T08:39:35.569Z,11976
2019-03-11T08:40:37.579Z,14608
2019-03-11T08:41:39.608Z,13396
2019-03-11T08:42:41.251Z,12084
2019-03-11T08:43:43.147Z,9340
2019-03-11T08:44:45.239Z,9808
2019-03-11T08:45:47.064Z,11936
2019-03-11T08:46:49.088Z,10188
2019-03-11T08:47:51.096Z,8004
2019-03-11T08:48:52.954Z,9376
2019-03-11T08:49:54.571Z,11464
2019-03-11T08:50:56.732Z,9492
2019-03-11T08:51:58.501Z,7788
2019-03-11T08:53:00.486Z,8568
2019-03-11T08:54:02.397Z,10052
2019-03-11T08:55:04.228Z,10896
2019-03-11T08:56:06.387Z,11356
2019-03-11T08:57:08.561Z,10968
2019-03-11T08:58:10.378Z,12272
2019-03-11T08:59:12.113Z,11572
2019-03-11T09:00:13.896Z,8556
2019-03-11T09:01:15.772Z,8980
2019-03-11T09:02:17.656Z,10764
2019-03-11T09:03:19.343Z,10352
2019-03-11T09:04:21.124Z,8440
2019-03-11T09:05:22.953Z,10316
2019-03-11T09:06:24.808Z,11268
2019-03-11T09:07:26.844Z,10432
2019-03-11T09:08:28.592Z,11612
2019-03-11T09:09:31.556Z,12288
2019-03-11T09:10:32.062Z,12984
2019-03-11T09:11:33.906Z,14872
2019-03-11T09:12:35.533Z,11120
2019-03-11T09:13:37.398Z,7424
2019-03-11T09:14:39.130Z,7412
2019-03-11T09:15:40.915Z,9216
2019-03-11T09:16:42.818Z,9368
2019-03-11T09:17:44.619Z,8296
2019-03-11T09:18:46.883Z,8524
2019-03-11T09:19:48.723Z,9512
2019-03-11T09:20:50.679Z,10640
2019-03-11T09:21:52.470Z,51104
2019-03-11T09:22:54.778Z,16348
2019-03-11T09:23:56.522Z,16844
2019-03-11T09:24:58.232Z,22784
2019-03-11T09:25:59.928Z,82016
2019-03-11T09:27:01.764Z,25248
2019-03-11T09:28:03.478Z,16820
2019-03-11T09:29:05.204Z,17312
2019-03-11T09:30:06.884Z,14504
2019-03-11T09:31:08.566Z,11636
2019-03-11T09:32:10.249Z,13040
2019-03-11T09:33:11.964Z,15668
2019-03-11T09:34:13.811Z,14528
2019-03-11T09:35:15.515Z,16140
2019-03-11T09:36:17.213Z,13980
2019-03-11T09:37:18.904Z,12736
2019-03-11T09:38:20.623Z,14404
2019-03-11T09:39:22.365Z,15464
2019-03-11T09:40:23.983Z,16296
2019-03-11T09:41:25.848Z,17104
2019-03-11T09:42:27.754Z,59392
2019-03-11T09:43:29.409Z,16404
2019-03-11T09:44:31.282Z,16272
2019-03-11T09:45:33.093Z,14896
2019-03-11T09:46:34.836Z,13136
2019-03-11T09:47:36.709Z,9400
2019-03-11T09:48:38.536Z,8028
2019-03-11T09:49:40.313Z,7212
2019-03-11T09:50:42.175Z,7692
2019-03-11T09:51:43.885Z,11092
2019-03-11T09:52:45.770Z,11920
2019-03-11T09:53:47.670Z,11028
2019-03-11T09:54:49.479Z,10804
2019-03-11T09:55:51.367Z,12064
2019-03-11T09:56:53.165Z,13324
2019-03-11T09:57:55.008Z,13580
2019-03-11T09:58:56.518Z,14484
2019-03-11T09:59:58.264Z,15164
2019-03-11T10:00:59.927Z,15308
2019-03-11T10:02:01.795Z,14140
2019-03-11T10:03:03.636Z,14532
2019-03-11T10:04:05.615Z,18048
2019-03-11T10:05:07.588Z,18848
2019-03-11T10:06:09.600Z,17824
2019-03-11T10:07:11.344Z,17264
2019-03-11T10:08:12.992Z,17984
2019-03-11T10:09:14.846Z,18944
2019-03-11T10:10:16.724Z,20000
2019-03-11T10:11:18.577Z,18944
2019-03-11T10:12:20.393Z,17632
2019-03-11T10:13:22.275Z,18560
2019-03-11T10:14:23.835Z,19360
2019-03-11T10:15:25.679Z,20992
2019-03-11T10:16:27.480Z,24064
2019-03-11T10:17:29.309Z,26496
2019-03-11T10:18:31.029Z,28768
2019-03-11T10:19:32.858Z,26528
2019-03-11T10:20:34.659Z,20512
2019-03-11T10:21:36.502Z,16020
2019-03-11T10:22:38.777Z,10000
2019-03-11T10:23:40.859Z,7712
2019-03-11T10:24:42.649Z,6708
2019-03-11T10:25:44.640Z,6304
2019-03-11T10:26:46.443Z,7160
2019-03-11T10:27:48.341Z,8780
2019-03-11T10:28:49.974Z,8964
2019-03-11T10:29:51.484Z,8632
2019-03-11T10:30:53.386Z,8148
2019-03-11T10:31:56.757Z,7196
2019-03-11T10:32:58.458Z,6488
2019-03-11T10:34:00.689Z,6328
2019-03-11T10:35:02.192Z,6508
2019-03-11T10:36:04.064Z,7024
2019-03-11T10:37:05.713Z,7724
2019-03-11T10:38:07.399Z,7784
2019-03-11T10:39:09.454Z,8016
2019-03-11T10:40:11.852Z,8932
2019-03-11T10:41:14.120Z,9616
2019-03-11T10:42:16.556Z,10088
2019-03-11T10:43:18.344Z,9960
2019-03-11T10:44:20.744Z,9380
2019-03-11T10:45:30.304Z,8564
2019-03-11T10:46:23.984Z,7796
2019-03-11T10:47:25.607Z,7984
2019-03-11T10:48:36.600Z,8404
2019-03-11T10:49:28.820Z,8272
2019-03-11T10:50:30.488Z,7664
2019-03-11T10:51:32.183Z,7992
2019-03-11T10:52:33.845Z,9836
2019-03-11T10:53:35.576Z,10928
2019-03-11T10:54:37.213Z,12328
2019-03-11T10:55:38.949Z,14044
2019-03-11T10:56:40.718Z,13480
2019-03-11T10:57:42.311Z,23296
2019-03-11T10:58:43.955Z,12636
2019-03-11T10:59:45.833Z,14008
2019-03-11T11:00:47.523Z,13184
2019-03-11T11:01:49.216Z,11272
2019-03-11T11:02:51.040Z,10556
2019-03-11T11:03:52.594Z,10888
2019-03-11T11:04:54.543Z,11752
2019-03-11T11:05:56.226Z,12500
2019-03-11T11:06:58.096Z,12516
2019-03-11T11:07:59.911Z,13008
2019-03-11T11:09:01.613Z,13300
2019-03-11T11:10:03.303Z,14432
2019-03-11T11:11:05.060Z,14152
2019-03-11T11:12:07.051Z,21184
2019-03-11T11:13:08.711Z,11620
2019-03-11T11:14:10.554Z,12256
2019-03-11T11:15:12.298Z,14560
2019-03-11T11:16:14.216Z,16312
2019-03-11T11:17:16.256Z,16520
2019-03-11T11:18:18.081Z,17248
2019-03-11T11:19:19.895Z,20928
2019-03-11T11:20:21.880Z,24640
2019-03-11T11:21:23.800Z,27520
2019-03-11T11:22:25.849Z,36256
2019-03-11T11:23:27.637Z,28544
2019-03-11T11:24:29.626Z,29888
2019-03-11T11:25:31.376Z,30176
2019-03-11T11:26:33.011Z,26528
2019-03-11T11:27:36.462Z,25696
2019-03-11T11:28:36.415Z,25920
2019-03-11T11:29:38.284Z,24864
2019-03-11T11:30:40.139Z,23296
2019-03-11T11:31:41.805Z,23200
2019-03-11T11:32:43.659Z,15120
2019-03-11T11:33:45.748Z,13084
2019-03-11T11:34:47.584Z,10472
2019-03-11T11:35:49.363Z,11724
2019-03-11T11:36:51.098Z,12388
2019-03-11T11:37:52.930Z,12068
2019-03-11T11:38:54.740Z,10632
2019-03-11T11:39:56.379Z,10612
2019-03-11T11:40:58.164Z,12688
2019-03-11T11:42:00.190Z,12668
2019-03-11T11:43:01.743Z,10844
2019-03-11T11:44:03.571Z,10948
2019-03-11T11:45:05.168Z,11904
2019-03-11T11:46:06.954Z,11896
2019-03-11T11:47:08.670Z,11288
2019-03-11T11:48:10.565Z,10988
2019-03-11T11:49:12.578Z,11128
2019-03-11T11:50:14.483Z,10568
2019-03-11T11:51:16.249Z,9996
2019-03-11T11:52:17.928Z,9608
2019-03-11T11:53:19.580Z,9208
2019-03-11T11:54:21.585Z,8880
2019-03-11T11:55:23.325Z,8576
2019-03-11T11:56:25.310Z,8412
2019-03-11T11:57:26.889Z,8236
2019-03-11T11:58:28.482Z,7532
2019-03-11T11:59:30.135Z,7044
2019-03-11T12:00:31.697Z,7024
2019-03-11T12:01:33.286Z,6936
2019-03-11T12:02:34.916Z,6948
2019-03-11T12:03:36.428Z,6740
2019-03-11T12:04:38.044Z,7116
2019-03-11T12:05:39.571Z,8500
2019-03-11T12:06:41.146Z,10216
2019-03-11T12:07:42.701Z,9580
2019-03-11T12:08:44.209Z,8600
2019-03-11T12:09:45.804Z,8696
2019-03-11T12:10:47.431Z,9156
2019-03-11T12:11:49.139Z,9620
2019-03-11T12:12:50.649Z,9432
2019-03-11T12:13:52.916Z,8332
2019-03-11T12:14:54.471Z,8508
2019-03-11T12:15:56.169Z,10084
2019-03-11T12:16:57.665Z,11604
2019-03-11T12:17:59.149Z,12896
2019-03-11T12:19:00.589Z,14600
2019-03-11T12:20:02.000Z,15468
2019-03-11T12:21:03.385Z,15352
2019-03-11T12:22:05.441Z,13384
2019-03-11T12:23:07.144Z,10320
2019-03-11T12:24:08.534Z,7784
2019-03-11T12:25:09.996Z,7088
2019-03-11T12:26:11.459Z,9128
2019-03-11T12:27:12.961Z,16196
2019-03-11T12:28:14.544Z,67072
2019-03-11T12:29:16.139Z,47328
2019-03-11T12:30:17.737Z,33440
2019-03-11T12:31:21.621Z,33920
2019-03-11T12:32:20.745Z,26048
2019-03-11T12:33:22.293Z,48960
2019-03-11T12:34:23.801Z,24928
2019-03-11T12:35:25.417Z,82496
2019-03-11T12:36:26.962Z,119520
2019-03-11T12:37:28.511Z,19232
2019-03-11T12:38:30.121Z,14708
2019-03-11T12:39:31.595Z,11740
2019-03-11T12:40:33.109Z,9716
2019-03-11T12:41:34.564Z,11464
2019-03-11T12:42:36.067Z,11996
2019-03-11T12:43:37.498Z,32704
2019-03-11T12:44:39.086Z,11328
2019-03-11T12:45:40.600Z,11608
2019-03-11T12:46:42.500Z,10740
2019-03-11T12:47:43.937Z,8732
2019-03-11T12:48:45.400Z,7188
2019-03-11T12:49:46.859Z,6064
2019-03-11T12:50:48.353Z,5048
2019-03-11T12:51:50.301Z,4356
2019-03-11T12:52:51.045Z,3876
2019-03-11T12:53:52.419Z,3832
2019-03-11T12:54:53.770Z,4728
2019-03-11T12:55:55.126Z,6564
2019-03-11T12:56:56.505Z,9168
2019-03-11T12:57:57.855Z,12748
2019-03-11T12:58:59.209Z,18144
2019-03-11T13:00:00.579Z,17360
2019-03-11T13:01:03.464Z,17148
2019-03-11T13:02:03.512Z,16480
2019-03-11T13:03:04.871Z,17984
2019-03-11T13:04:06.254Z,42848
2019-03-11T13:05:07.714Z,20160
2019-03-11T13:06:09.069Z,20512
2019-03-11T13:07:10.560Z,20064
2019-03-11T13:08:11.985Z,18976
2019-03-11T13:09:13.426Z,18976
2019-03-11T13:10:14.896Z,20160
2019-03-11T13:11:16.341Z,20736
2019-03-11T13:12:17.780Z,19104
2019-03-11T13:13:19.396Z,16376
2019-03-11T13:14:20.709Z,15160
2019-03-11T13:15:22.099Z,15108
2019-03-11T13:16:23.472Z,15188
2019-03-11T13:17:24.929Z,15768
2019-03-11T13:18:26.279Z,15204
2019-03-11T13:19:27.784Z,14300
2019-03-11T13:20:29.269Z,14116
2019-03-11T13:21:30.760Z,13536
2019-03-11T13:22:32.290Z,12188
2019-03-11T13:23:34.551Z,10328
2019-03-11T13:24:36.421Z,8920
2019-03-11T13:25:37.950Z,7872
2019-03-11T13:26:39.388Z,8572
2019-03-11T13:27:40.866Z,9940
2019-03-11T13:28:42.431Z,10740
2019-03-11T13:29:43.872Z,10416
2019-03-11T13:30:45.404Z,9320
2019-03-11T13:31:47.035Z,8496
2019-03-11T13:32:48.547Z,8412
2019-03-11T13:33:50.137Z,8192
2019-03-11T13:34:51.615Z,8276
2019-03-11T13:35:53.081Z,8484
2019-03-11T13:36:54.575Z,9368
2019-03-11T13:37:56.235Z,9284
2019-03-11T13:38:57.885Z,8564
2019-03-11T13:39:59.674Z,8888
2019-03-11T13:41:01.169Z,9516
2019-03-11T13:42:02.826Z,10120
2019-03-11T13:43:04.361Z,10536
2019-03-11T13:44:06.222Z,10460
2019-03-11T13:45:07.714Z,10124
2019-03-11T13:46:09.467Z,9172
2019-03-11T13:47:10.960Z,8488
2019-03-11T13:48:12.460Z,7484
2019-03-11T13:49:14.096Z,7044
2019-03-11T13:50:15.561Z,21440
2019-03-11T13:51:17.061Z,6588
2019-03-11T13:52:18.603Z,7128
2019-03-11T13:53:20.100Z,8500
2019-03-11T13:54:21.567Z,9868
2019-03-11T13:55:23.082Z,10696
2019-03-11T13:56:24.521Z,9452
2019-03-11T13:57:26.071Z,7572
2019-03-11T13:58:27.566Z,6696
2019-03-11T13:59:29.113Z,6528
2019-03-11T14:00:30.667Z,6688
2019-03-11T14:01:32.185Z,6516
2019-03-11T14:02:33.702Z,5864
2019-03-11T14:03:35.276Z,5008
2019-03-11T14:04:36.761Z,4068
2019-03-11T14:05:38.223Z,3604
2019-03-11T14:06:39.736Z,3440
2019-03-11T14:07:41.201Z,3436
2019-03-11T14:08:42.622Z,3792